createdAt,value
2022-09-29T00:00:27.012Z,11.95
2022-09-29T00:02:54.231Z,13.02
2022-09-29T00:05:21.589Z,12.13
2022-09-29T00:07:48.404Z,12.45
2022-09-29T00:10:15.095Z,11.88
2022-09-29T00:12:41.780Z,12.50
2022-09-29T00:15:08.830Z,13.40
2022-09-29T00:17:35.440Z,13.32
2022-09-29T00:20:02.063Z,12.82
2022-09-29T00:22:28.654Z,12.57
2022-09-29T00:24:55.239Z,12.93
2022-09-29T00:27:21.841Z,14.07
2022-09-29T00:29:48.453Z,14.10
2022-09-29T00:32:15.273Z,14.10
2022-09-29T00:34:41.912Z,14.68
2022-09-29T00:37:08.774Z,14.10
2022-09-29T00:39:35.420Z,14.00
2022-09-29T00:42:02.066Z,14.85
2022-09-29T00:45:00.475Z,14.32
2022-09-29T00:47:29.048Z,13.77
2022-09-29T00:50:09.382Z,14.70
2022-09-29T00:52:40.753Z,14.07
2022-09-29T00:55:17.665Z,13.93
2022-09-29T00:57:52.618Z,13.20
2022-09-29T01:00:22.443Z,14.10
2022-09-29T01:03:02.631Z,12.55
2022-09-29T01:05:34.521Z,14.20
2022-09-29T01:08:25.984Z,14.13
2022-09-29T01:10:53.712Z,14.20
2022-09-29T01:13:22.229Z,14.18
2022-09-29T01:15:48.855Z,13.32
2022-09-29T01:18:15.597Z,14.57
2022-09-29T01:20:54.030Z,14.70
2022-09-29T01:23:37.251Z,15.50
2022-09-29T01:26:35.401Z,15.07
2022-09-29T01:29:31.838Z,15.18
2022-09-29T01:32:35.578Z,15.20
2022-09-29T01:35:30.116Z,15.50
2022-09-29T01:38:09.006Z,14.48
2022-09-29T01:40:48.195Z,15.90
2022-09-29T01:43:27.521Z,15.95
2022-09-29T01:46:03.159Z,15.93
2022-09-29T01:48:34.596Z,16.70
2022-09-29T01:51:12.885Z,15.30
2022-09-29T01:53:46.031Z,15.32
2022-09-29T01:56:18.682Z,15.35
2022-09-29T01:58:59.710Z,15.52
2022-09-29T02:01:31.214Z,14.90
2022-09-29T02:04:09.426Z,14.73
2022-09-29T02:06:43.998Z,15.00
2022-09-29T02:09:15.626Z,14.80
2022-09-29T02:11:42.854Z,14.48
2022-09-29T02:14:19.863Z,14.20
2022-09-29T02:19:27.120Z,13.73
2022-09-29T02:21:54.415Z,14.27
2022-09-29T02:24:24.893Z,14.75
2022-09-29T02:26:52.325Z,14.57
2022-09-29T02:29:20.286Z,15.15
2022-09-29T02:31:48.235Z,15.32
2022-09-29T02:34:18.858Z,15.13
2022-09-29T02:37:15.943Z,14.70
2022-09-29T02:40:04.327Z,14.57
2022-09-29T02:42:55.762Z,14.07
2022-09-29T02:45:36.891Z,14.00
2022-09-29T02:48:09.246Z,14.55
2022-09-29T02:50:56.564Z,14.07
2022-09-29T02:54:08.050Z,13.40
2022-09-29T02:57:17.934Z,12.52
2022-09-29T03:00:10.120Z,13.40
2022-09-29T03:02:42.041Z,13.43
2022-09-29T03:05:15.053Z,13.60
2022-09-29T03:07:41.785Z,13.00
2022-09-29T03:10:09.998Z,13.98
2022-09-29T03:12:36.914Z,13.50
2022-09-29T03:15:04.066Z,13.10
2022-09-29T03:17:31.297Z,13.32
2022-09-29T03:19:57.947Z,13.38
2022-09-29T03:22:25.215Z,13.32
2022-09-29T03:24:51.846Z,13.27
2022-09-29T03:27:18.647Z,13.35
2022-09-29T03:29:45.199Z,13.77
2022-09-29T03:32:11.826Z,14.20
2022-09-29T03:34:38.443Z,13.27
2022-09-29T03:37:05.230Z,13.25
2022-09-29T03:39:31.791Z,13.40
2022-09-29T03:41:58.437Z,13.93
2022-09-29T03:44:25.038Z,13.18
2022-09-29T03:46:51.635Z,12.95
2022-09-29T03:49:18.285Z,13.52
2022-09-29T03:51:45.057Z,13.20
2022-09-29T03:54:11.987Z,14.10
2022-09-29T03:56:39.415Z,15.35
2022-09-29T03:59:09.266Z,14.93
2022-09-29T04:01:38.050Z,15.25
2022-09-29T04:04:06.006Z,15.38
2022-09-29T04:06:32.718Z,14.50
2022-09-29T04:08:59.369Z,15.13
2022-09-29T04:11:25.977Z,15.30
2022-09-29T04:13:52.687Z,15.60
2022-09-29T04:16:19.300Z,16.27
2022-09-29T04:18:45.956Z,15.38
2022-09-29T04:21:12.702Z,16.13
2022-09-29T04:23:39.323Z,15.57
2022-09-29T04:26:05.965Z,16.27
2022-09-29T04:28:33.414Z,16.38
2022-09-29T04:31:00.111Z,15.77
2022-09-29T04:33:26.870Z,16.80
2022-09-29T04:35:53.592Z,15.48
2022-09-29T04:38:20.217Z,15.90
2022-09-29T04:40:48.335Z,17.13
2022-09-29T04:43:15.289Z,18.95
2022-09-29T04:45:41.988Z,18.50
2022-09-29T04:48:08.671Z,18.90
2022-09-29T04:50:35.261Z,20.15
2022-09-29T04:53:01.845Z,19.77
2022-09-29T04:55:28.441Z,20.25
2022-09-29T04:57:55.125Z,19.13
2022-09-29T05:00:21.713Z,16.55
2022-09-29T05:02:50.000Z,15.90
2022-09-29T05:05:17.394Z,15.07
2022-09-29T05:07:44.508Z,13.70
2022-09-29T05:10:11.209Z,13.60
2022-09-29T05:12:37.931Z,14.82
2022-09-29T05:15:06.184Z,15.20
2022-09-29T05:17:33.160Z,14.25
2022-09-29T05:19:59.729Z,16.23
2022-09-29T05:22:26.419Z,18.70
2022-09-29T05:24:53.486Z,20.40
2022-09-29T05:27:20.382Z,19.45
2022-09-29T05:29:47.023Z,17.48
2022-09-29T05:32:13.659Z,16.50
2022-09-29T05:34:40.312Z,17.08
2022-09-29T05:37:07.229Z,15.68
2022-09-29T05:39:34.620Z,18.38
2022-09-29T05:42:02.464Z,17.45
2022-09-29T05:44:29.253Z,15.18
2022-09-29T05:46:55.821Z,14.30
2022-09-29T05:49:23.228Z,14.70
2022-09-29T05:51:49.850Z,14.40
2022-09-29T05:54:16.545Z,17.67
2022-09-29T05:56:45.459Z,16.45
2022-09-29T05:59:13.357Z,15.68
2022-09-29T06:01:40.008Z,14.73
2022-09-29T06:04:06.673Z,16.25
2022-09-29T06:06:33.262Z,14.20
2022-09-29T06:08:59.950Z,13.68
2022-09-29T06:11:33.245Z,13.35
2022-09-29T06:14:01.155Z,12.15
2022-09-29T06:16:29.482Z,11.70
2022-09-29T06:18:56.533Z,11.43
2022-09-29T06:21:25.665Z,10.88
2022-09-29T06:23:54.290Z,10.57
2022-09-29T06:26:24.313Z,10.95
2022-09-29T06:28:52.228Z,10.10
2022-09-29T06:31:21.239Z,10.30
2022-09-29T06:33:47.953Z,10.05
2022-09-29T06:36:37.881Z,10.10
2022-09-29T06:39:06.363Z,10.23
2022-09-29T06:41:34.247Z,9.85
2022-09-29T06:44:01.589Z,10.55
2022-09-29T06:46:28.277Z,10.10
2022-09-29T06:48:55.722Z,9.70
2022-09-29T06:51:26.466Z,9.10
2022-09-29T06:54:08.248Z,10.20
2022-09-29T06:56:37.948Z,10.63
2022-09-29T06:59:04.803Z,11.25
2022-09-29T07:01:31.416Z,12.30
2022-09-29T07:04:00.631Z,13.02
2022-09-29T07:06:28.153Z,14.00
2022-09-29T07:08:55.780Z,12.70
2022-09-29T07:11:22.635Z,12.30
2022-09-29T07:13:54.168Z,15.73
2022-09-29T07:16:23.842Z,13.98
2022-09-29T07:18:51.320Z,13.38
2022-09-29T07:21:18.874Z,15.15
2022-09-29T07:23:47.127Z,13.93
2022-09-29T07:26:16.498Z,14.20
2022-09-29T07:28:43.709Z,15.57
2022-09-29T07:31:17.176Z,14.90
2022-09-29T07:33:44.803Z,15.38
2022-09-29T07:36:12.358Z,14.32
2022-09-29T07:38:39.060Z,15.45
2022-09-29T07:41:11.485Z,15.07
2022-09-29T07:43:39.006Z,15.20
2022-09-29T07:46:06.714Z,15.82
2022-09-29T07:48:34.494Z,16.00
2022-09-29T07:51:16.280Z,15.95
2022-09-29T07:53:43.003Z,15.80
2022-09-29T07:56:18.564Z,15.93
2022-09-29T07:58:46.124Z,15.98
2022-09-29T08:01:15.865Z,16.45
2022-09-29T08:03:47.098Z,15.60
2022-09-29T08:06:13.862Z,16.17
2022-09-29T08:08:45.628Z,15.82
2022-09-29T08:11:30.207Z,16.90
2022-09-29T08:13:58.384Z,16.73
2022-09-29T08:16:25.110Z,17.40
2022-09-29T08:18:51.756Z,16.60
2022-09-29T08:21:18.424Z,16.35
2022-09-29T08:23:45.093Z,15.88
2022-09-29T08:26:17.501Z,15.75
2022-09-29T08:28:45.217Z,15.60
2022-09-29T08:31:20.275Z,15.85
2022-09-29T08:33:51.578Z,15.85
2022-09-29T08:36:20.117Z,15.52
2022-09-29T08:38:52.036Z,16.25
2022-09-29T08:41:46.573Z,15.88
2022-09-29T08:44:37.909Z,15.95
2022-09-29T08:47:21.447Z,15.00
2022-09-29T08:50:23.039Z,15.30
2022-09-29T08:53:24.899Z,14.55
2022-09-29T08:56:04.358Z,14.02
2022-09-29T08:58:32.368Z,12.07
2022-09-29T09:01:09.556Z,13.73
2022-09-29T09:04:31.477Z,13.55
2022-09-29T09:07:16.506Z,12.70
2022-09-29T09:09:56.358Z,11.35
2022-09-29T09:12:53.420Z,12.25
2022-09-29T09:15:37.091Z,13.10
2022-09-29T09:21:40.347Z,13.60
2022-09-29T09:24:24.765Z,13.50
2022-09-29T09:26:52.569Z,11.82
2022-09-29T09:29:37.902Z,11.32
2022-09-29T09:32:16.347Z,12.45
2022-09-29T09:35:19.267Z,12.90
2022-09-29T09:37:50.379Z,12.43
2022-09-29T09:40:40.998Z,11.48
2022-09-29T09:43:25.675Z,10.68
2022-09-29T09:46:11.458Z,11.60
2022-09-29T09:49:17.273Z,11.02
2022-09-29T09:51:54.161Z,10.48
2022-09-29T09:54:29.209Z,10.80
2022-09-29T09:57:01.914Z,10.50
2022-09-29T09:59:57.430Z,9.98
2022-09-29T10:02:24.490Z,10.93
2022-09-29T10:04:55.598Z,9.60
2022-09-29T10:07:25.467Z,8.70
2022-09-29T10:09:52.826Z,6.78
2022-09-29T10:12:21.945Z,6.82
2022-09-29T10:15:01.711Z,7.63
2022-09-29T10:17:36.934Z,8.70
2022-09-29T10:20:06.524Z,9.77
2022-09-29T10:22:34.731Z,8.80
2022-09-29T10:25:20.100Z,10.45
2022-09-29T10:27:53.070Z,15.00
2022-09-29T10:30:25.112Z,15.80
2022-09-29T10:32:59.477Z,16.70
2022-09-29T10:35:35.650Z,7.25
2022-09-29T10:38:08.076Z,5.50
2022-09-29T10:40:35.573Z,5.53
2022-09-29T10:43:24.333Z,4.82
2022-09-29T10:45:51.168Z,3.60
2022-09-29T10:48:18.967Z,3.63
2022-09-29T10:50:49.865Z,4.75
2022-09-29T10:53:40.622Z,4.85
2022-09-29T10:56:18.202Z,4.63
2022-09-29T10:59:05.662Z,5.47
2022-09-29T11:01:43.316Z,6.18
2022-09-29T11:04:32.371Z,5.82
2022-09-29T11:07:14.080Z,5.90
2022-09-29T11:09:43.012Z,5.00
2022-09-29T11:12:29.593Z,5.45
2022-09-29T11:14:56.190Z,4.88
2022-09-29T11:17:39.921Z,4.53
2022-09-29T11:20:14.910Z,5.05
2022-09-29T11:23:14.352Z,4.10
2022-09-29T11:25:53.181Z,4.30
2022-09-29T11:28:43.062Z,3.40
2022-09-29T11:31:22.976Z,3.15
2022-09-29T11:34:11.031Z,3.70
2022-09-29T11:37:11.223Z,2.60
2022-09-29T11:39:59.534Z,2.58
2022-09-29T11:43:01.561Z,2.60
2022-09-29T11:45:50.187Z,2.67
2022-09-29T11:48:30.012Z,2.70
2022-09-29T11:51:25.283Z,2.58
2022-09-29T11:54:29.603Z,3.22
2022-09-29T11:57:03.978Z,3.65
2022-09-29T11:59:55.593Z,3.10
2022-09-29T12:02:44.039Z,2.75
2022-09-29T12:05:29.426Z,2.85
2022-09-29T12:08:24.535Z,2.67
2022-09-29T12:10:56.913Z,2.40
2022-09-29T12:13:47.773Z,1.98
2022-09-29T12:16:18.453Z,1.70
2022-09-29T12:19:04.208Z,2.50
2022-09-29T12:21:40.641Z,2.20
2022-09-29T12:24:15.597Z,2.00
2022-09-29T12:26:45.054Z,2.60
2022-09-29T12:29:34.643Z,2.47
2022-09-29T12:32:08.681Z,2.17
2022-09-29T12:34:53.098Z,2.38
2022-09-29T12:37:32.422Z,2.03
2022-09-29T12:40:37.716Z,1.90
2022-09-29T12:43:30.386Z,1.80
2022-09-29T12:46:06.590Z,1.70
2022-09-29T12:49:04.484Z,1.55
2022-09-29T12:51:39.246Z,1.70
2022-09-29T12:54:22.213Z,1.90
2022-09-29T12:57:04.868Z,2.10
2022-09-29T12:59:39.014Z,1.80
2022-09-29T13:02:43.663Z,2.00
2022-09-29T13:05:35.862Z,1.20
2022-09-29T13:08:39.938Z,1.80
2022-09-29T13:11:27.835Z,1.80
2022-09-29T13:14:16.082Z,1.77
2022-09-29T13:17:11.308Z,1.38
2022-09-29T13:19:59.820Z,1.25
2022-09-29T13:22:50.134Z,1.23
2022-09-29T13:25:36.129Z,1.55
2022-09-29T13:28:41.593Z,1.30
2022-09-29T13:31:14.246Z,1.27
2022-09-29T13:33:46.274Z,1.80
2022-09-29T13:36:24.047Z,1.40
2022-09-29T13:38:55.366Z,1.45
2022-09-29T13:41:21.910Z,1.90
2022-09-29T13:43:51.532Z,2.35
2022-09-29T13:46:31.277Z,2.05
2022-09-29T13:49:11.606Z,1.30
2022-09-29T13:51:55.575Z,1.58
2022-09-29T13:54:53.177Z,1.48
2022-09-29T13:57:28.054Z,1.80
2022-09-29T13:59:54.953Z,2.53
2022-09-29T14:02:40.353Z,1.75
2022-09-29T14:05:25.565Z,1.50
2022-09-29T14:07:55.868Z,1.30
2022-09-29T14:10:46.425Z,1.30
2022-09-29T14:13:20.354Z,1.20
2022-09-29T14:15:56.487Z,1.35
2022-09-29T14:18:29.300Z,1.50
2022-09-29T14:21:04.043Z,1.30
2022-09-29T14:23:46.046Z,1.10
2022-09-29T14:26:48.921Z,1.23
2022-09-29T14:29:30.081Z,1.20
2022-09-29T14:31:58.656Z,1.10
2022-09-29T14:34:30.713Z,1.35
2022-09-29T14:37:00.105Z,1.50
2022-09-29T14:39:27.826Z,1.83
2022-09-29T14:41:56.286Z,1.30
2022-09-29T14:44:55.184Z,1.30
2022-09-29T14:48:29.441Z,1.23
2022-09-29T14:51:29.508Z,1.10
2022-09-29T14:54:13.448Z,1.00
2022-09-29T14:57:12.209Z,1.25
2022-09-29T15:00:04.151Z,0.98
2022-09-29T15:02:34.102Z,1.00
2022-09-29T15:05:01.492Z,0.80
2022-09-29T15:07:28.643Z,1.10
2022-09-29T15:10:00.797Z,1.10
2022-09-29T15:12:32.185Z,1.10
2022-09-29T15:15:01.403Z,1.10
2022-09-29T15:17:47.020Z,1.00
2022-09-29T15:20:43.861Z,1.10
2022-09-29T15:23:57.548Z,1.20
2022-09-29T15:26:27.374Z,1.98
2022-09-29T15:28:54.218Z,1.60
2022-09-29T15:31:29.224Z,2.30
2022-09-29T15:33:56.180Z,1.98
2022-09-29T15:36:29.029Z,2.00
2022-09-29T15:39:17.863Z,2.60
2022-09-29T15:41:45.099Z,1.77
2022-09-29T15:44:22.267Z,2.65
2022-09-29T15:46:57.472Z,3.00
2022-09-29T15:49:30.376Z,2.97
2022-09-29T15:52:15.057Z,2.20
2022-09-29T15:54:47.526Z,1.80
2022-09-29T15:57:51.545Z,1.50
2022-09-29T16:00:21.084Z,2.30
2022-09-29T16:03:02.673Z,2.80
2022-09-29T16:05:41.528Z,2.40
2022-09-29T16:08:21.360Z,1.90
2022-09-29T16:13:37.524Z,3.17
2022-09-29T16:16:11.016Z,3.25
2022-09-29T16:18:41.064Z,1.83
2022-09-29T16:21:20.853Z,1.98
2022-09-29T16:24:12.118Z,1.75
2022-09-29T16:26:57.513Z,2.13
2022-09-29T16:29:55.545Z,2.63
2022-09-29T16:32:42.039Z,3.15
2022-09-29T16:35:43.465Z,3.72
2022-09-29T16:38:29.455Z,4.00
2022-09-29T16:40:56.851Z,3.28
2022-09-29T16:43:27.854Z,3.25
2022-09-29T16:45:56.952Z,5.43
2022-09-29T16:48:25.909Z,5.25
2022-09-29T16:50:58.148Z,5.00
2022-09-29T16:53:33.029Z,2.95
2022-09-29T16:56:00.873Z,3.80
2022-09-29T16:58:28.550Z,3.53
2022-09-29T17:00:55.920Z,5.78
2022-09-29T17:03:22.518Z,5.28
2022-09-29T17:05:49.327Z,5.13
2022-09-29T17:08:22.045Z,4.10
2022-09-29T17:10:53.609Z,4.40
2022-09-29T17:13:21.016Z,3.90
2022-09-29T17:15:51.394Z,4.45
2022-09-29T17:18:20.628Z,5.53
2022-09-29T17:20:47.379Z,6.00
2022-09-29T17:23:14.093Z,5.90
2022-09-29T17:25:44.971Z,11.68
2022-09-29T17:28:17.467Z,9.77
2022-09-29T17:30:46.696Z,10.25
2022-09-29T17:33:16.000Z,5.38
2022-09-29T17:35:51.602Z,8.30
2022-09-29T17:38:21.259Z,13.68
2022-09-29T17:41:04.409Z,9.05
2022-09-29T17:43:31.607Z,6.28
2022-09-29T17:46:00.791Z,8.68
2022-09-29T17:48:28.741Z,6.68
2022-09-29T17:50:58.036Z,7.38
2022-09-29T17:53:26.219Z,3.60
2022-09-29T17:55:56.127Z,4.70
2022-09-29T17:58:23.289Z,6.05
2022-09-29T18:00:53.519Z,5.80
2022-09-29T18:03:21.625Z,5.65
2022-09-29T18:05:55.910Z,5.18
2022-09-29T18:08:25.123Z,5.30
2022-09-29T18:10:56.064Z,4.43
2022-09-29T18:13:24.318Z,4.97
2022-09-29T18:15:51.257Z,4.50
2022-09-29T18:18:20.736Z,4.38
2022-09-29T18:20:48.084Z,3.97
2022-09-29T18:23:17.822Z,5.20
2022-09-29T18:25:47.907Z,4.93
2022-09-29T18:28:16.102Z,4.28
2022-09-29T18:30:45.745Z,4.25
2022-09-29T18:33:17.646Z,4.50
2022-09-29T18:35:46.845Z,5.43
2022-09-29T18:38:13.586Z,6.95
2022-09-29T18:40:41.481Z,8.80
2022-09-29T18:43:12.093Z,11.25
2022-09-29T18:45:41.782Z,8.23
2022-09-29T18:48:12.118Z,4.80
2022-09-29T18:50:43.453Z,5.30
2022-09-29T18:53:11.468Z,5.10
2022-09-29T18:55:38.763Z,6.00
2022-09-29T18:58:05.426Z,7.10
2022-09-29T19:00:39.077Z,6.75
2022-09-29T19:03:05.761Z,7.40
2022-09-29T19:05:34.500Z,7.30
2022-09-29T19:08:04.258Z,7.28
2022-09-29T19:10:33.332Z,6.97
2022-09-29T19:13:07.646Z,6.75
2022-09-29T19:15:38.648Z,5.78
2022-09-29T19:18:06.799Z,5.32
2022-09-29T19:20:34.512Z,5.07
2022-09-29T19:23:02.902Z,5.57
2022-09-29T19:25:37.723Z,5.25
2022-09-29T19:28:06.254Z,6.10
2022-09-29T19:30:36.727Z,8.45
2022-09-29T19:33:03.932Z,7.65
2022-09-29T19:35:30.638Z,6.18
2022-09-29T19:37:59.084Z,6.38
2022-09-29T19:40:29.294Z,7.40
2022-09-29T19:42:58.432Z,6.97
2022-09-29T19:45:25.418Z,5.45
2022-09-29T19:47:56.881Z,5.82
2022-09-29T19:50:43.616Z,6.82
2022-09-29T19:53:10.538Z,6.53
2022-09-29T19:55:39.302Z,7.47
2022-09-29T19:58:07.088Z,5.22
2022-09-29T20:00:34.186Z,4.80
2022-09-29T20:03:01.041Z,5.13
2022-09-29T20:05:27.714Z,5.65
2022-09-29T20:07:54.439Z,6.43
2022-09-29T20:10:21.985Z,5.93
2022-09-29T20:12:48.640Z,6.28
2022-09-29T20:15:15.362Z,7.18
2022-09-29T20:17:44.087Z,6.70
2022-09-29T20:20:11.754Z,6.65
2022-09-29T20:22:38.766Z,5.90
2022-09-29T20:25:07.899Z,5.95
2022-09-29T20:27:35.762Z,6.00
2022-09-29T20:30:05.062Z,6.65
2022-09-29T20:32:33.542Z,6.78
2022-09-29T20:35:00.584Z,7.07
2022-09-29T20:37:28.983Z,8.00
2022-09-29T20:39:56.097Z,7.97
2022-09-29T20:42:22.725Z,9.50
2022-09-29T20:44:54.852Z,7.45
2022-09-29T20:47:24.822Z,6.93
2022-09-29T20:49:51.716Z,8.38
2022-09-29T20:52:18.329Z,8.05
2022-09-29T20:54:45.802Z,7.43
2022-09-29T20:57:12.393Z,8.20
2022-09-29T20:59:39.033Z,10.05
2022-09-29T21:02:06.139Z,8.95
2022-09-29T21:04:32.818Z,9.20
2022-09-29T21:06:59.375Z,9.73
2022-09-29T21:09:26.457Z,6.88
2022-09-29T21:11:54.269Z,6.00
2022-09-29T21:14:24.246Z,7.75
2022-09-29T21:16:52.924Z,8.80
2022-09-29T21:19:23.902Z,8.82
2022-09-29T21:21:50.512Z,7.85
2022-09-29T21:24:17.078Z,9.57
2022-09-29T21:26:43.955Z,10.60
2022-09-29T21:29:17.401Z,12.13
2022-09-29T21:31:45.307Z,8.50
2022-09-29T21:34:13.863Z,7.32
2022-09-29T21:36:40.950Z,6.47
2022-09-29T21:39:09.077Z,6.22
2022-09-29T21:41:38.883Z,6.97
2022-09-29T21:44:12.966Z,6.47
2022-09-29T21:46:40.123Z,6.15
2022-09-29T21:49:08.910Z,6.25
2022-09-29T21:51:38.188Z,6.00
2022-09-29T21:54:07.210Z,5.85
2022-09-29T21:56:38.902Z,6.18
2022-09-29T21:59:06.001Z,6.45
2022-09-29T22:01:32.972Z,6.63
2022-09-29T22:03:59.897Z,7.20
2022-09-29T22:06:31.931Z,7.03
2022-09-29T22:08:59.641Z,7.57
2022-09-29T22:11:29.241Z,7.78
2022-09-29T22:14:00.864Z,7.82
2022-09-29T22:16:31.122Z,8.05
2022-09-29T22:19:21.892Z,7.90
2022-09-29T22:21:46.439Z,7.25
2022-09-29T22:24:13.158Z,6.90
2022-09-29T22:26:40.942Z,6.55
2022-09-29T22:29:07.881Z,5.95
2022-09-29T22:31:35.120Z,6.43
2022-09-29T22:34:04.138Z,6.45
2022-09-29T22:36:33.287Z,6.57
2022-09-29T22:39:01.727Z,6.90
2022-09-29T22:41:29.088Z,7.57
2022-09-29T22:43:58.885Z,6.22
2022-09-29T22:46:27.600Z,6.88
2022-09-29T22:48:54.291Z,6.68
2022-09-29T22:51:21.247Z,6.63
2022-09-29T22:53:48.281Z,6.57
2022-09-29T22:56:18.757Z,6.93
2022-09-29T22:58:45.689Z,7.00
2022-09-29T23:01:15.913Z,7.32
2022-09-29T23:03:44.746Z,7.80
2022-09-29T23:06:12.653Z,7.00
2022-09-29T23:08:39.313Z,7.10
2022-09-29T23:11:07.826Z,6.20
2022-09-29T23:13:37.181Z,6.28
2022-09-29T23:16:12.052Z,6.57
2022-09-29T23:18:43.884Z,7.18
2022-09-29T23:21:13.120Z,6.57
2022-09-29T23:23:39.737Z,7.03
2022-09-29T23:26:06.772Z,8.50
2022-09-29T23:28:33.345Z,8.27
2022-09-29T23:31:07.615Z,8.07
2022-09-29T23:33:34.450Z,8.55
2022-09-29T23:36:13.228Z,7.15
2022-09-29T23:39:00.141Z,7.15
2022-09-29T23:41:29.640Z,7.45
2022-09-29T23:43:58.280Z,6.43
2022-09-29T23:46:26.865Z,6.97
2022-09-29T23:48:53.567Z,7.57
2022-09-29T23:51:20.908Z,7.97
2022-09-29T23:53:47.518Z,7.88
2022-09-29T23:56:14.141Z,7.50
2022-09-29T23:58:41.451Z,6.80
